sensor_id;sensor_type;location;lat;lon;timestamp;pressure;altitude;pressure_sealevel;temperature
19666;BMP180;9980;51.020;7.772;2023-04-15T00:01:48;96698.00;;;8.50
19666;BMP180;9980;51.020;7.772;2023-04-15T00:04:15;96706.00;;;8.40
19666;BMP180;9980;51.020;7.772;2023-04-15T00:06:41;96710.00;;;8.40
19666;BMP180;9980;51.020;7.772;2023-04-15T00:09:07;96699.00;;;8.30
19666;BMP180;9980;51.020;7.772;2023-04-15T00:11:33;96704.00;;;8.30
19666;BMP180;9980;51.020;7.772;2023-04-15T00:14:00;96707.00;;;8.30
19666;BMP180;9980;51.020;7.772;2023-04-15T00:16:26;96702.00;;;8.20
19666;BMP180;9980;51.020;7.772;2023-04-15T00:18:53;96690.00;;;8.20
19666;BMP180;9980;51.020;7.772;2023-04-15T00:21:19;96699.00;;;8.10
19666;BMP180;9980;51.020;7.772;2023-04-15T00:23:46;96709.00;;;8.10
19666;BMP180;9980;51.020;7.772;2023-04-15T00:26:17;96690.00;;;8.10
19666;BMP180;9980;51.020;7.772;2023-04-15T00:28:46;96703.00;;;8.00
19666;BMP180;9980;51.020;7.772;2023-04-15T00:31:12;96698.00;;;8.00
19666;BMP180;9980;51.020;7.772;2023-04-15T00:33:39;96693.00;;;8.00
19666;BMP180;9980;51.020;7.772;2023-04-15T00:36:06;96684.00;;;7.90
19666;BMP180;9980;51.020;7.772;2023-04-15T00:38:33;96686.00;;;7.90
19666;BMP180;9980;51.020;7.772;2023-04-15T00:40:59;96693.00;;;7.90
19666;BMP180;9980;51.020;7.772;2023-04-15T00:43:26;96694.00;;;7.80
19666;BMP180;9980;51.020;7.772;2023-04-15T00:45:55;96695.00;;;7.80
19666;BMP180;9980;51.020;7.772;2023-04-15T00:48:23;96683.00;;;7.80
19666;BMP180;9980;51.020;7.772;2023-04-15T00:50:49;96683.00;;;7.70
19666;BMP180;9980;51.020;7.772;2023-04-15T00:53:15;96683.00;;;7.70
19666;BMP180;9980;51.020;7.772;2023-04-15T00:55:41;96692.00;;;7.70
19666;BMP180;9980;51.020;7.772;2023-04-15T00:58:07;96681.00;;;7.60
19666;BMP180;9980;51.020;7.772;2023-04-15T01:00:34;96690.00;;;7.60
19666;BMP180;9980;51.020;7.772;2023-04-15T01:03:00;96690.00;;;7.60
19666;BMP180;9980;51.020;7.772;2023-04-15T01:05:29;96691.00;;;7.60
19666;BMP180;9980;51.020;7.772;2023-04-15T01:07:56;96690.00;;;7.60
19666;BMP180;9980;51.020;7.772;2023-04-15T01:10:23;96688.00;;;7.50
19666;BMP180;9980;51.020;7.772;2023-04-15T01:12:49;96692.00;;;7.50
19666;BMP180;9980;51.020;7.772;2023-04-15T01:15:16;96696.00;;;7.50
19666;BMP180;9980;51.020;7.772;2023-04-15T01:17:42;96686.00;;;7.40
19666;BMP180;9980;51.020;7.772;2023-04-15T01:20:08;96683.00;;;7.40
19666;BMP180;9980;51.020;7.772;2023-04-15T01:22:35;96675.00;;;7.30
19666;BMP180;9980;51.020;7.772;2023-04-15T01:25:09;96659.00;;;7.30
19666;BMP180;9980;51.020;7.772;2023-04-15T01:27:38;96696.00;;;7.30
19666;BMP180;9980;51.020;7.772;2023-04-15T01:30:07;96680.00;;;7.30
19666;BMP180;9980;51.020;7.772;2023-04-15T01:32:34;96681.00;;;7.20
19666;BMP180;9980;51.020;7.772;2023-04-15T01:35:01;96690.00;;;7.20
19666;BMP180;9980;51.020;7.772;2023-04-15T01:37:27;96692.00;;;7.20
19666;BMP180;9980;51.020;7.772;2023-04-15T01:39:54;96673.00;;;7.20
19666;BMP180;9980;51.020;7.772;2023-04-15T01:42:22;96689.00;;;7.10
19666;BMP180;9980;51.020;7.772;2023-04-15T01:44:48;96672.00;;;7.10
19666;BMP180;9980;51.020;7.772;2023-04-15T01:47:14;96680.00;;;7.10
19666;BMP180;9980;51.020;7.772;2023-04-15T01:49:41;96684.00;;;7.10
19666;BMP180;9980;51.020;7.772;2023-04-15T01:52:07;96677.00;;;7.00
19666;BMP180;9980;51.020;7.772;2023-04-15T01:54:33;96689.00;;;7.00
19666;BMP180;9980;51.020;7.772;2023-04-15T01:57:00;96680.00;;;7.00
19666;BMP180;9980;51.020;7.772;2023-04-15T01:59:28;96684.00;;;7.00
19666;BMP180;9980;51.020;7.772;2023-04-15T02:01:54;96670.00;;;6.90
19666;BMP180;9980;51.020;7.772;2023-04-15T02:04:21;96691.00;;;6.90
19666;BMP180;9980;51.020;7.772;2023-04-15T02:06:47;96683.00;;;6.90
19666;BMP180;9980;51.020;7.772;2023-04-15T02:09:13;96688.00;;;6.90
19666;BMP180;9980;51.020;7.772;2023-04-15T02:11:39;96676.00;;;6.90
19666;BMP180;9980;51.020;7.772;2023-04-15T02:14:06;96693.00;;;6.80
19666;BMP180;9980;51.020;7.772;2023-04-15T02:16:32;96646.00;;;6.80
19666;BMP180;9980;51.020;7.772;2023-04-15T02:18:59;96675.00;;;6.80
19666;BMP180;9980;51.020;7.772;2023-04-15T02:21:26;96679.00;;;6.80
19666;BMP180;9980;51.020;7.772;2023-04-15T02:23:52;96672.00;;;6.70
19666;BMP180;9980;51.020;7.772;2023-04-15T02:26:20;96667.00;;;6.70
19666;BMP180;9980;51.020;7.772;2023-04-15T02:28:48;96685.00;;;6.70
19666;BMP180;9980;51.020;7.772;2023-04-15T02:31:16;96687.00;;;6.70
19666;BMP180;9980;51.020;7.772;2023-04-15T02:33:42;96697.00;;;6.60
19666;BMP180;9980;51.020;7.772;2023-04-15T02:36:09;96675.00;;;6.60
19666;BMP180;9980;51.020;7.772;2023-04-15T02:38:37;96692.00;;;6.60
19666;BMP180;9980;51.020;7.772;2023-04-15T02:41:06;96704.00;;;6.60
19666;BMP180;9980;51.020;7.772;2023-04-15T02:43:34;96697.00;;;6.50
19666;BMP180;9980;51.020;7.772;2023-04-15T02:46:00;96694.00;;;6.50
19666;BMP180;9980;51.020;7.772;2023-04-15T02:48:27;96705.00;;;6.50
19666;BMP180;9980;51.020;7.772;2023-04-15T02:50:53;96690.00;;;6.50
19666;BMP180;9980;51.020;7.772;2023-04-15T02:53:19;96699.00;;;6.40
19666;BMP180;9980;51.020;7.772;2023-04-15T02:55:46;96699.00;;;6.40
19666;BMP180;9980;51.020;7.772;2023-04-15T02:58:12;96694.00;;;6.40
19666;BMP180;9980;51.020;7.772;2023-04-15T03:00:39;96691.00;;;6.40
19666;BMP180;9980;51.020;7.772;2023-04-15T03:03:05;96703.00;;;6.40
19666;BMP180;9980;51.020;7.772;2023-04-15T03:05:31;96700.00;;;6.40
19666;BMP180;9980;51.020;7.772;2023-04-15T03:07:59;96713.00;;;6.30
19666;BMP180;9980;51.020;7.772;2023-04-15T03:10:26;96704.00;;;6.30
19666;BMP180;9980;51.020;7.772;2023-04-15T03:12:53;96691.00;;;6.30
19666;BMP180;9980;51.020;7.772;2023-04-15T03:15:22;96702.00;;;6.30
19666;BMP180;9980;51.020;7.772;2023-04-15T03:17:51;96693.00;;;6.30
19666;BMP180;9980;51.020;7.772;2023-04-15T03:20:17;96704.00;;;6.20
19666;BMP180;9980;51.020;7.772;2023-04-15T03:22:43;96696.00;;;6.20
19666;BMP180;9980;51.020;7.772;2023-04-15T03:25:10;96699.00;;;6.20
19666;BMP180;9980;51.020;7.772;2023-04-15T03:27:37;96711.00;;;6.20
19666;BMP180;9980;51.020;7.772;2023-04-15T03:30:05;96651.00;;;6.20
19666;BMP180;9980;51.020;7.772;2023-04-15T03:32:33;96693.00;;;6.10
19666;BMP180;9980;51.020;7.772;2023-04-15T03:34:59;96698.00;;;6.10
19666;BMP180;9980;51.020;7.772;2023-04-15T03:37:25;96712.00;;;6.10
19666;BMP180;9980;51.020;7.772;2023-04-15T03:39:52;96691.00;;;6.10
19666;BMP180;9980;51.020;7.772;2023-04-15T03:42:18;96705.00;;;6.10
19666;BMP180;9980;51.020;7.772;2023-04-15T03:44:44;96713.00;;;6.00
19666;BMP180;9980;51.020;7.772;2023-04-15T03:47:10;96702.00;;;6.00
19666;BMP180;9980;51.020;7.772;2023-04-15T03:49:37;96711.00;;;6.00
19666;BMP180;9980;51.020;7.772;2023-04-15T03:52:03;96696.00;;;6.00
19666;BMP180;9980;51.020;7.772;2023-04-15T03:54:29;96697.00;;;6.00
19666;BMP180;9980;51.020;7.772;2023-04-15T03:56:56;96701.00;;;6.00
19666;BMP180;9980;51.020;7.772;2023-04-15T03:59:22;96655.00;;;5.90
19666;BMP180;9980;51.020;7.772;2023-04-15T04:01:49;96704.00;;;5.90
19666;BMP180;9980;51.020;7.772;2023-04-15T04:04:15;96692.00;;;5.90
19666;BMP180;9980;51.020;7.772;2023-04-15T04:06:42;96704.00;;;5.90
19666;BMP180;9980;51.020;7.772;2023-04-15T04:09:08;96695.00;;;5.80
19666;BMP180;9980;51.020;7.772;2023-04-15T04:11:34;96705.00;;;5.80
19666;BMP180;9980;51.020;7.772;2023-04-15T04:14:02;96697.00;;;5.80
19666;BMP180;9980;51.020;7.772;2023-04-15T04:16:28;96699.00;;;5.80
19666;BMP180;9980;51.020;7.772;2023-04-15T04:18:55;96705.00;;;5.80
19666;BMP180;9980;51.020;7.772;2023-04-15T04:21:21;96706.00;;;5.80
19666;BMP180;9980;51.020;7.772;2023-04-15T04:23:47;96710.00;;;5.80
19666;BMP180;9980;51.020;7.772;2023-04-15T04:26:14;96714.00;;;5.80
19666;BMP180;9980;51.020;7.772;2023-04-15T04:28:40;96723.00;;;5.80
19666;BMP180;9980;51.020;7.772;2023-04-15T04:31:06;96706.00;;;5.70
19666;BMP180;9980;51.020;7.772;2023-04-15T04:33:33;96713.00;;;5.70
19666;BMP180;9980;51.020;7.772;2023-04-15T04:35:59;96702.00;;;5.70
19666;BMP180;9980;51.020;7.772;2023-04-15T04:38:26;96719.00;;;5.70
19666;BMP180;9980;51.020;7.772;2023-04-15T04:40:52;96716.00;;;5.70
19666;BMP180;9980;51.020;7.772;2023-04-15T04:43:18;96727.00;;;5.70
19666;BMP180;9980;51.020;7.772;2023-04-15T04:45:45;96711.00;;;5.70
19666;BMP180;9980;51.020;7.772;2023-04-15T04:48:11;96726.00;;;5.70
19666;BMP180;9980;51.020;7.772;2023-04-15T04:50:38;96717.00;;;5.70
19666;BMP180;9980;51.020;7.772;2023-04-15T04:53:04;96717.00;;;5.70
19666;BMP180;9980;51.020;7.772;2023-04-15T04:55:30;96712.00;;;5.70
19666;BMP180;9980;51.020;7.772;2023-04-15T04:57:57;96720.00;;;5.70
19666;BMP180;9980;51.020;7.772;2023-04-15T05:00:23;96701.00;;;5.70
19666;BMP180;9980;51.020;7.772;2023-04-15T05:02:50;96716.00;;;5.60
19666;BMP180;9980;51.020;7.772;2023-04-15T05:05:16;96714.00;;;5.60
19666;BMP180;9980;51.020;7.772;2023-04-15T05:07:43;96709.00;;;5.60
19666;BMP180;9980;51.020;7.772;2023-04-15T05:10:09;96729.00;;;5.60
19666;BMP180;9980;51.020;7.772;2023-04-15T05:12:35;96727.00;;;5.60
19666;BMP180;9980;51.020;7.772;2023-04-15T05:15:05;96721.00;;;5.60
19666;BMP180;9980;51.020;7.772;2023-04-15T05:17:31;96735.00;;;5.60
19666;BMP180;9980;51.020;7.772;2023-04-15T05:20:01;96744.00;;;5.60
19666;BMP180;9980;51.020;7.772;2023-04-15T05:22:28;96742.00;;;5.60
19666;BMP180;9980;51.020;7.772;2023-04-15T05:24:54;96742.00;;;5.60
19666;BMP180;9980;51.020;7.772;2023-04-15T05:27:20;96731.00;;;5.70
19666;BMP180;9980;51.020;7.772;2023-04-15T05:29:48;96745.00;;;5.70
19666;BMP180;9980;51.020;7.772;2023-04-15T05:32:14;96755.00;;;5.70
19666;BMP180;9980;51.020;7.772;2023-04-15T05:34:40;96751.00;;;5.70
19666;BMP180;9980;51.020;7.772;2023-04-15T05:37:06;96766.00;;;5.70
19666;BMP180;9980;51.020;7.772;2023-04-15T05:39:33;96768.00;;;5.70
19666;BMP180;9980;51.020;7.772;2023-04-15T05:41:59;96755.00;;;5.70
19666;BMP180;9980;51.020;7.772;2023-04-15T05:44:25;96760.00;;;5.70
19666;BMP180;9980;51.020;7.772;2023-04-15T05:46:51;96756.00;;;5.80
19666;BMP180;9980;51.020;7.772;2023-04-15T05:49:18;96773.00;;;5.80
19666;BMP180;9980;51.020;7.772;2023-04-15T05:51:46;96771.00;;;5.80
19666;BMP180;9980;51.020;7.772;2023-04-15T05:54:12;96765.00;;;5.90
19666;BMP180;9980;51.020;7.772;2023-04-15T05:56:38;96784.00;;;5.90
19666;BMP180;9980;51.020;7.772;2023-04-15T05:59:05;96773.00;;;5.90
19666;BMP180;9980;51.020;7.772;2023-04-15T06:01:32;96778.00;;;6.00
19666;BMP180;9980;51.020;7.772;2023-04-15T06:03:59;96778.00;;;6.00
19666;BMP180;9980;51.020;7.772;2023-04-15T06:06:25;96787.00;;;6.00
19666;BMP180;9980;51.020;7.772;2023-04-15T06:08:52;96788.00;;;6.10
19666;BMP180;9980;51.020;7.772;2023-04-15T06:11:20;96786.00;;;6.10
19666;BMP180;9980;51.020;7.772;2023-04-15T06:13:47;96804.00;;;6.20
19666;BMP180;9980;51.020;7.772;2023-04-15T06:16:13;96786.00;;;6.20
19666;BMP180;9980;51.020;7.772;2023-04-15T06:18:39;96795.00;;;6.30
19666;BMP180;9980;51.020;7.772;2023-04-15T06:21:05;96798.00;;;6.30
19666;BMP180;9980;51.020;7.772;2023-04-15T06:23:35;96806.00;;;6.30
19666;BMP180;9980;51.020;7.772;2023-04-15T06:26:02;96814.00;;;6.40
19666;BMP180;9980;51.020;7.772;2023-04-15T06:28:28;96801.00;;;6.40
19666;BMP180;9980;51.020;7.772;2023-04-15T06:30:55;96807.00;;;6.50
19666;BMP180;9980;51.020;7.772;2023-04-15T06:33:21;96800.00;;;6.60
19666;BMP180;9980;51.020;7.772;2023-04-15T06:35:47;96800.00;;;6.60
19666;BMP180;9980;51.020;7.772;2023-04-15T06:38:14;96816.00;;;6.70
19666;BMP180;9980;51.020;7.772;2023-04-15T06:40:41;96810.00;;;6.70
19666;BMP180;9980;51.020;7.772;2023-04-15T06:43:08;96807.00;;;6.80
19666;BMP180;9980;51.020;7.772;2023-04-15T06:45:34;96811.00;;;6.80
19666;BMP180;9980;51.020;7.772;2023-04-15T06:48:00;96819.00;;;6.90
19666;BMP180;9980;51.020;7.772;2023-04-15T06:50:26;96821.00;;;7.00
19666;BMP180;9980;51.020;7.772;2023-04-15T06:52:56;96825.00;;;7.00
19666;BMP180;9980;51.020;7.772;2023-04-15T06:55:22;96811.00;;;7.10
19666;BMP180;9980;51.020;7.772;2023-04-15T06:57:48;96824.00;;;7.20
19666;BMP180;9980;51.020;7.772;2023-04-15T07:00:14;96819.00;;;7.30
19666;BMP180;9980;51.020;7.772;2023-04-15T07:02:41;96825.00;;;7.40
19666;BMP180;9980;51.020;7.772;2023-04-15T07:05:07;96818.00;;;7.50
19666;BMP180;9980;51.020;7.772;2023-04-15T07:07:35;96819.00;;;7.60
19666;BMP180;9980;51.020;7.772;2023-04-15T07:10:01;96818.00;;;7.70
19666;BMP180;9980;51.020;7.772;2023-04-15T07:12:28;96809.00;;;7.80
19666;BMP180;9980;51.020;7.772;2023-04-15T07:14:54;96819.00;;;8.00
19666;BMP180;9980;51.020;7.772;2023-04-15T07:17:20;96807.00;;;8.10
19666;BMP180;9980;51.020;7.772;2023-04-15T07:19:47;96807.00;;;8.20
19666;BMP180;9980;51.020;7.772;2023-04-15T07:22:13;96816.00;;;8.40
19666;BMP180;9980;51.020;7.772;2023-04-15T07:24:39;96815.00;;;8.60
19666;BMP180;9980;51.020;7.772;2023-04-15T07:27:06;96809.00;;;8.70
19666;BMP180;9980;51.020;7.772;2023-04-15T07:29:32;96806.00;;;8.90
19666;BMP180;9980;51.020;7.772;2023-04-15T07:31:58;96811.00;;;9.10
19666;BMP180;9980;51.020;7.772;2023-04-15T07:34:25;96813.00;;;9.20
19666;BMP180;9980;51.020;7.772;2023-04-15T07:36:51;96811.00;;;9.40
19666;BMP180;9980;51.020;7.772;2023-04-15T07:39:18;96817.00;;;9.60
19666;BMP180;9980;51.020;7.772;2023-04-15T07:41:44;96812.00;;;9.80
19666;BMP180;9980;51.020;7.772;2023-04-15T07:44:11;96809.00;;;9.90
19666;BMP180;9980;51.020;7.772;2023-04-15T07:46:38;96829.00;;;10.10
19666;BMP180;9980;51.020;7.772;2023-04-15T07:49:04;96814.00;;;10.30
19666;BMP180;9980;51.020;7.772;2023-04-15T07:51:30;96811.00;;;10.40
19666;BMP180;9980;51.020;7.772;2023-04-15T07:53:57;96818.00;;;10.60
19666;BMP180;9980;51.020;7.772;2023-04-15T07:56:24;96816.00;;;10.80
19666;BMP180;9980;51.020;7.772;2023-04-15T07:58:51;96812.00;;;10.90
19666;BMP180;9980;51.020;7.772;2023-04-15T08:01:17;96819.00;;;11.10
19666;BMP180;9980;51.020;7.772;2023-04-15T08:03:43;96800.00;;;11.20
19666;BMP180;9980;51.020;7.772;2023-04-15T08:06:10;96818.00;;;11.40
19666;BMP180;9980;51.020;7.772;2023-04-15T08:08:37;96815.00;;;11.50
19666;BMP180;9980;51.020;7.772;2023-04-15T08:11:03;96802.00;;;11.60
19666;BMP180;9980;51.020;7.772;2023-04-15T08:13:29;96823.00;;;11.80
19666;BMP180;9980;51.020;7.772;2023-04-15T08:16:23;96828.00;;;11.90
19666;BMP180;9980;51.020;7.772;2023-04-15T08:18:52;96827.00;;;12.10
19666;BMP180;9980;51.020;7.772;2023-04-15T08:21:19;96835.00;;;12.20
19666;BMP180;9980;51.020;7.772;2023-04-15T08:23:47;96830.00;;;12.40
19666;BMP180;9980;51.020;7.772;2023-04-15T08:26:15;96815.00;;;12.50
19666;BMP180;9980;51.020;7.772;2023-04-15T08:28:44;96821.00;;;12.60
19666;BMP180;9980;51.020;7.772;2023-04-15T08:31:12;96811.00;;;12.70
19666;BMP180;9980;51.020;7.772;2023-04-15T08:33:39;96820.00;;;12.80
19666;BMP180;9980;51.020;7.772;2023-04-15T08:36:06;96821.00;;;12.80
19666;BMP180;9980;51.020;7.772;2023-04-15T08:38:33;96819.00;;;12.90
19666;BMP180;9980;51.020;7.772;2023-04-15T08:41:22;96830.00;;;12.90
19666;BMP180;9980;51.020;7.772;2023-04-15T08:44:00;96820.00;;;12.90
19666;BMP180;9980;51.020;7.772;2023-04-15T08:46:31;96831.00;;;13.00
19666;BMP180;9980;51.020;7.772;2023-04-15T08:49:02;96834.00;;;13.10
19666;BMP180;9980;51.020;7.772;2023-04-15T08:51:31;96834.00;;;13.10
19666;BMP180;9980;51.020;7.772;2023-04-15T08:53:57;96827.00;;;13.20
19666;BMP180;9980;51.020;7.772;2023-04-15T08:56:25;96848.00;;;13.20
19666;BMP180;9980;51.020;7.772;2023-04-15T08:58:53;96846.00;;;13.30
19666;BMP180;9980;51.020;7.772;2023-04-15T09:01:19;96839.00;;;13.30
19666;BMP180;9980;51.020;7.772;2023-04-15T09:03:48;96852.00;;;13.40
19666;BMP180;9980;51.020;7.772;2023-04-15T09:06:16;96863.00;;;13.40
19666;BMP180;9980;51.020;7.772;2023-04-15T09:08:43;96844.00;;;13.40
19666;BMP180;9980;51.020;7.772;2023-04-15T09:11:10;96858.00;;;13.40
19666;BMP180;9980;51.020;7.772;2023-04-15T09:13:36;96867.00;;;13.40
19666;BMP180;9980;51.020;7.772;2023-04-15T09:16:05;96853.00;;;13.50
19666;BMP180;9980;51.020;7.772;2023-04-15T09:18:34;96859.00;;;13.50
19666;BMP180;9980;51.020;7.772;2023-04-15T09:21:10;96866.00;;;13.50
19666;BMP180;9980;51.020;7.772;2023-04-15T09:23:41;96869.00;;;13.60
19666;BMP180;9980;51.020;7.772;2023-04-15T09:26:18;96872.00;;;13.60
19666;BMP180;9980;51.020;7.772;2023-04-15T09:28:45;96878.00;;;13.60
19666;BMP180;9980;51.020;7.772;2023-04-15T09:31:11;96874.00;;;13.60
19666;BMP180;9980;51.020;7.772;2023-04-15T09:33:54;96889.00;;;13.70
19666;BMP180;9980;51.020;7.772;2023-04-15T09:36:24;96871.00;;;13.70
19666;BMP180;9980;51.020;7.772;2023-04-15T09:38:57;96873.00;;;13.80
19666;BMP180;9980;51.020;7.772;2023-04-15T09:41:26;96880.00;;;13.80
19666;BMP180;9980;51.020;7.772;2023-04-15T09:43:53;96883.00;;;13.90
19666;BMP180;9980;51.020;7.772;2023-04-15T09:46:39;96876.00;;;13.90
19666;BMP180;9980;51.020;7.772;2023-04-15T09:49:10;96882.00;;;14.00
19666;BMP180;9980;51.020;7.772;2023-04-15T09:51:37;96880.00;;;14.10
19666;BMP180;9980;51.020;7.772;2023-04-15T09:54:04;96888.00;;;14.10
19666;BMP180;9980;51.020;7.772;2023-04-15T09:56:36;96885.00;;;14.20
19666;BMP180;9980;51.020;7.772;2023-04-15T09:59:07;96880.00;;;14.30
19666;BMP180;9980;51.020;7.772;2023-04-15T10:01:35;96895.00;;;14.30
19666;BMP180;9980;51.020;7.772;2023-04-15T10:04:05;96905.00;;;14.40
19666;BMP180;9980;51.020;7.772;2023-04-15T10:06:33;96890.00;;;14.40
19666;BMP180;9980;51.020;7.772;2023-04-15T10:09:00;96905.00;;;14.50
19666;BMP180;9980;51.020;7.772;2023-04-15T10:11:28;96907.00;;;14.60
19666;BMP180;9980;51.020;7.772;2023-04-15T10:13:57;96897.00;;;14.60
19666;BMP180;9980;51.020;7.772;2023-04-15T10:16:27;96916.00;;;14.60
19666;BMP180;9980;51.020;7.772;2023-04-15T10:19:00;96918.00;;;14.70
19666;BMP180;9980;51.020;7.772;2023-04-15T10:21:29;96915.00;;;14.70
19666;BMP180;9980;51.020;7.772;2023-04-15T10:23:57;96912.00;;;14.70
19666;BMP180;9980;51.020;7.772;2023-04-15T10:26:24;96922.00;;;14.80
19666;BMP180;9980;51.020;7.772;2023-04-15T10:28:52;96908.00;;;14.80
19666;BMP180;9980;51.020;7.772;2023-04-15T10:31:18;96906.00;;;14.80
19666;BMP180;9980;51.020;7.772;2023-04-15T10:33:47;96912.00;;;14.80
19666;BMP180;9980;51.020;7.772;2023-04-15T10:36:14;96914.00;;;14.90
19666;BMP180;9980;51.020;7.772;2023-04-15T10:38:43;96917.00;;;14.80
19666;BMP180;9980;51.020;7.772;2023-04-15T10:43:52;96913.00;;;14.80
19666;BMP180;9980;51.020;7.772;2023-04-15T10:46:42;96924.00;;;14.80
19666;BMP180;9980;51.020;7.772;2023-04-15T10:49:12;96915.00;;;14.80
19666;BMP180;9980;51.020;7.772;2023-04-15T10:51:51;96925.00;;;14.80
19666;BMP180;9980;51.020;7.772;2023-04-15T10:59:30;96938.00;;;14.80
19666;BMP180;9980;51.020;7.772;2023-04-15T11:02:01;96920.00;;;14.70
19666;BMP180;9980;51.020;7.772;2023-04-15T11:04:54;96944.00;;;14.70
19666;BMP180;9980;51.020;7.772;2023-04-15T11:12:55;96955.00;;;14.70
19666;BMP180;9980;51.020;7.772;2023-04-15T11:15:40;96976.00;;;14.60
19666;BMP180;9980;51.020;7.772;2023-04-15T11:21:08;96962.00;;;14.40
19666;BMP180;9980;51.020;7.772;2023-04-15T11:23:42;96973.00;;;14.40
19666;BMP180;9980;51.020;7.772;2023-04-15T11:26:12;96977.00;;;14.40
19666;BMP180;9980;51.020;7.772;2023-04-15T11:28:43;96969.00;;;14.30
19666;BMP180;9980;51.020;7.772;2023-04-15T11:31:13;96973.00;;;14.30
19666;BMP180;9980;51.020;7.772;2023-04-15T11:33:59;96971.00;;;14.20
19666;BMP180;9980;51.020;7.772;2023-04-15T11:36:29;96977.00;;;14.20
19666;BMP180;9980;51.020;7.772;2023-04-15T11:38:58;96993.00;;;14.20
19666;BMP180;9980;51.020;7.772;2023-04-15T11:41:25;96999.00;;;14.20
19666;BMP180;9980;51.020;7.772;2023-04-15T11:43:51;97003.00;;;14.20
19666;BMP180;9980;51.020;7.772;2023-04-15T11:46:20;96992.00;;;14.20
19666;BMP180;9980;51.020;7.772;2023-04-15T11:48:47;96989.00;;;14.20
19666;BMP180;9980;51.020;7.772;2023-04-15T11:51:14;96996.00;;;14.20
19666;BMP180;9980;51.020;7.772;2023-04-15T11:53:46;97024.00;;;14.10
19666;BMP180;9980;51.020;7.772;2023-04-15T11:56:23;97020.00;;;14.10
19666;BMP180;9980;51.020;7.772;2023-04-15T11:58:58;97021.00;;;14.10
19666;BMP180;9980;51.020;7.772;2023-04-15T12:01:34;97017.00;;;14.10
19666;BMP180;9980;51.020;7.772;2023-04-15T12:04:10;97019.00;;;14.00
19666;BMP180;9980;51.020;7.772;2023-04-15T12:06:37;97019.00;;;14.00
19666;BMP180;9980;51.020;7.772;2023-04-15T12:09:09;97027.00;;;14.00
19666;BMP180;9980;51.020;7.772;2023-04-15T12:11:43;97032.00;;;14.00
19666;BMP180;9980;51.020;7.772;2023-04-15T12:14:31;97023.00;;;14.00
19666;BMP180;9980;51.020;7.772;2023-04-15T12:17:03;97035.00;;;14.00
19666;BMP180;9980;51.020;7.772;2023-04-15T12:19:38;97057.00;;;14.00
19666;BMP180;9980;51.020;7.772;2023-04-15T12:22:14;97045.00;;;14.00
19666;BMP180;9980;51.020;7.772;2023-04-15T12:24:42;97055.00;;;14.00
19666;BMP180;9980;51.020;7.772;2023-04-15T12:27:11;97054.00;;;14.00
19666;BMP180;9980;51.020;7.772;2023-04-15T12:29:40;97045.00;;;14.00
19666;BMP180;9980;51.020;7.772;2023-04-15T12:32:15;97056.00;;;14.00
19666;BMP180;9980;51.020;7.772;2023-04-15T12:34:50;97056.00;;;14.00
19666;BMP180;9980;51.020;7.772;2023-04-15T12:37:17;97057.00;;;14.00
19666;BMP180;9980;51.020;7.772;2023-04-15T12:39:48;97058.00;;;14.00
19666;BMP180;9980;51.020;7.772;2023-04-15T12:42:16;97055.00;;;14.00
19666;BMP180;9980;51.020;7.772;2023-04-15T12:44:43;97082.00;;;14.00
19666;BMP180;9980;51.020;7.772;2023-04-15T12:47:10;97082.00;;;14.00
19666;BMP180;9980;51.020;7.772;2023-04-15T12:49:37;97064.00;;;14.00
19666;BMP180;9980;51.020;7.772;2023-04-15T12:52:04;97064.00;;;14.00
19666;BMP180;9980;51.020;7.772;2023-04-15T12:54:33;97097.00;;;14.00
19666;BMP180;9980;51.020;7.772;2023-04-15T12:57:01;97091.00;;;14.10
19666;BMP180;9980;51.020;7.772;2023-04-15T12:59:32;97087.00;;;14.10
19666;BMP180;9980;51.020;7.772;2023-04-15T13:01:58;97091.00;;;14.10
19666;BMP180;9980;51.020;7.772;2023-04-15T13:04:25;97090.00;;;14.10
19666;BMP180;9980;51.020;7.772;2023-04-15T13:06:55;97085.00;;;14.10
19666;BMP180;9980;51.020;7.772;2023-04-15T13:09:21;97097.00;;;14.10
19666;BMP180;9980;51.020;7.772;2023-04-15T13:11:48;97094.00;;;14.10
19666;BMP180;9980;51.020;7.772;2023-04-15T13:14:15;97086.00;;;14.20
19666;BMP180;9980;51.020;7.772;2023-04-15T13:16:41;97094.00;;;14.20
19666;BMP180;9980;51.020;7.772;2023-04-15T13:19:08;97093.00;;;14.20
19666;BMP180;9980;51.020;7.772;2023-04-15T13:21:34;97097.00;;;14.20
19666;BMP180;9980;51.020;7.772;2023-04-15T13:24:02;97103.00;;;14.20
19666;BMP180;9980;51.020;7.772;2023-04-15T13:26:29;97107.00;;;14.10
19666;BMP180;9980;51.020;7.772;2023-04-15T13:28:56;97110.00;;;14.10
19666;BMP180;9980;51.020;7.772;2023-04-15T13:31:22;97108.00;;;14.10
19666;BMP180;9980;51.020;7.772;2023-04-15T13:33:48;97124.00;;;14.10
19666;BMP180;9980;51.020;7.772;2023-04-15T13:36:14;97107.00;;;14.10
19666;BMP180;9980;51.020;7.772;2023-04-15T13:38:41;97118.00;;;14.10
19666;BMP180;9980;51.020;7.772;2023-04-15T13:41:07;97119.00;;;14.10
19666;BMP180;9980;51.020;7.772;2023-04-15T13:43:33;97120.00;;;14.10
19666;BMP180;9980;51.020;7.772;2023-04-15T13:46:00;97116.00;;;14.10
19666;BMP180;9980;51.020;7.772;2023-04-15T13:48:27;97127.00;;;14.10
19666;BMP180;9980;51.020;7.772;2023-04-15T13:50:53;97124.00;;;14.10
19666;BMP180;9980;51.020;7.772;2023-04-15T13:53:19;97136.00;;;14.10
19666;BMP180;9980;51.020;7.772;2023-04-15T13:55:59;97130.00;;;14.10
19666;BMP180;9980;51.020;7.772;2023-04-15T13:58:26;97130.00;;;14.10
19666;BMP180;9980;51.020;7.772;2023-04-15T14:00:52;97146.00;;;14.10
19666;BMP180;9980;51.020;7.772;2023-04-15T14:03:18;97140.00;;;14.10
19666;BMP180;9980;51.020;7.772;2023-04-15T14:05:44;97134.00;;;14.10
19666;BMP180;9980;51.020;7.772;2023-04-15T14:08:11;97138.00;;;14.10
19666;BMP180;9980;51.020;7.772;2023-04-15T14:10:37;97143.00;;;14.10
19666;BMP180;9980;51.020;7.772;2023-04-15T14:13:03;97155.00;;;14.10
19666;BMP180;9980;51.020;7.772;2023-04-15T14:15:29;97137.00;;;14.10
19666;BMP180;9980;51.020;7.772;2023-04-15T14:17:56;97163.00;;;14.00
19666;BMP180;9980;51.020;7.772;2023-04-15T14:20:22;97155.00;;;14.00
19666;BMP180;9980;51.020;7.772;2023-04-15T14:22:49;97159.00;;;14.00
19666;BMP180;9980;51.020;7.772;2023-04-15T14:25:15;97159.00;;;13.90
19666;BMP180;9980;51.020;7.772;2023-04-15T14:27:58;97157.00;;;13.90
19666;BMP180;9980;51.020;7.772;2023-04-15T14:30:25;97167.00;;;13.90
19666;BMP180;9980;51.020;7.772;2023-04-15T14:32:51;97159.00;;;13.90
19666;BMP180;9980;51.020;7.772;2023-04-15T14:35:17;97183.00;;;13.90
19666;BMP180;9980;51.020;7.772;2023-04-15T14:37:44;97165.00;;;13.90
19666;BMP180;9980;51.020;7.772;2023-04-15T14:40:10;97169.00;;;13.90
19666;BMP180;9980;51.020;7.772;2023-04-15T14:42:36;97167.00;;;13.90
19666;BMP180;9980;51.020;7.772;2023-04-15T14:45:03;97169.00;;;13.90
19666;BMP180;9980;51.020;7.772;2023-04-15T14:47:30;97173.00;;;13.90
19666;BMP180;9980;51.020;7.772;2023-04-15T14:49:56;97175.00;;;13.90